sensor_id;sensor_type;location;lat;lon;timestamp;pressure;altitude;pressure_sealevel;temperature
68952;BMP180;56000;51.146;17.112;2023-07-31T00:01:56;99886.40;;;16.80
68952;BMP180;56000;51.146;17.112;2023-07-31T00:04:29;99884.60;;;16.80
68952;BMP180;56000;51.146;17.112;2023-07-31T00:07:02;99888.20;;;16.84
68952;BMP180;56000;51.146;17.112;2023-07-31T00:09:38;99889.20;;;16.80
68952;BMP180;56000;51.146;17.112;2023-07-31T00:12:11;99893.60;;;16.80
68952;BMP180;56000;51.146;17.112;2023-07-31T00:14:44;99892.00;;;16.80
68952;BMP180;56000;51.146;17.112;2023-07-31T00:17:18;99891.20;;;16.80
68952;BMP180;56000;51.146;17.112;2023-07-31T00:19:51;99892.40;;;16.80
68952;BMP180;56000;51.146;17.112;2023-07-31T00:22:24;99888.40;;;16.80
68952;BMP180;56000;51.146;17.112;2023-07-31T00:24:57;99896.00;;;16.80
68952;BMP180;56000;51.146;17.112;2023-07-31T00:27:31;99891.20;;;16.80
68952;BMP180;56000;51.146;17.112;2023-07-31T00:30:07;99894.60;;;16.80
68952;BMP180;56000;51.146;17.112;2023-07-31T00:32:40;99888.60;;;16.80
68952;BMP180;56000;51.146;17.112;2023-07-31T00:35:14;99890.20;;;16.80
68952;BMP180;56000;51.146;17.112;2023-07-31T00:37:47;99889.00;;;16.80
68952;BMP180;56000;51.146;17.112;2023-07-31T00:40:20;99887.40;;;16.80
68952;BMP180;56000;51.146;17.112;2023-07-31T00:42:53;99886.80;;;16.80
68952;BMP180;56000;51.146;17.112;2023-07-31T00:45:26;99884.60;;;16.80
68952;BMP180;56000;51.146;17.112;2023-07-31T00:48:00;99885.20;;;16.80
68952;BMP180;56000;51.146;17.112;2023-07-31T00:50:34;99892.00;;;16.80
68952;BMP180;56000;51.146;17.112;2023-07-31T00:53:07;99896.20;;;16.80
68952;BMP180;56000;51.146;17.112;2023-07-31T00:55:41;99898.80;;;16.80
68952;BMP180;56000;51.146;17.112;2023-07-31T00:58:15;99892.80;;;16.80
68952;BMP180;56000;51.146;17.112;2023-07-31T01:00:48;99893.40;;;16.80
68952;BMP180;56000;51.146;17.112;2023-07-31T01:03:22;99891.80;;;16.80
68952;BMP180;56000;51.146;17.112;2023-07-31T01:06:08;99887.40;;;16.80
68952;BMP180;56000;51.146;17.112;2023-07-31T01:08:52;99888.40;;;16.80
68952;BMP180;56000;51.146;17.112;2023-07-31T01:11:29;99890.60;;;16.80
68952;BMP180;56000;51.146;17.112;2023-07-31T01:14:03;99887.40;;;16.80
68952;BMP180;56000;51.146;17.112;2023-07-31T01:16:36;99890.20;;;16.80
68952;BMP180;56000;51.146;17.112;2023-07-31T01:19:10;99891.00;;;16.78
68952;BMP180;56000;51.146;17.112;2023-07-31T01:22:28;99890.00;;;16.70
68952;BMP180;56000;51.146;17.112;2023-07-31T01:25:30;99888.80;;;16.70
68952;BMP180;56000;51.146;17.112;2023-07-31T01:28:14;99887.80;;;16.70
68952;BMP180;56000;51.146;17.112;2023-07-31T01:30:51;99885.60;;;16.70
68952;BMP180;56000;51.146;17.112;2023-07-31T01:33:25;99891.40;;;16.70
68952;BMP180;56000;51.146;17.112;2023-07-31T01:35:58;99894.00;;;16.70
68952;BMP180;56000;51.146;17.112;2023-07-31T01:38:31;99893.80;;;16.70
68952;BMP180;56000;51.146;17.112;2023-07-31T01:41:06;99894.80;;;16.70
68952;BMP180;56000;51.146;17.112;2023-07-31T01:43:39;99895.00;;;16.70
68952;BMP180;56000;51.146;17.112;2023-07-31T01:46:13;99893.80;;;16.70
68952;BMP180;56000;51.146;17.112;2023-07-31T01:48:46;99892.20;;;16.64
68952;BMP180;56000;51.146;17.112;2023-07-31T01:51:19;99887.40;;;16.60
68952;BMP180;56000;51.146;17.112;2023-07-31T01:53:52;99885.40;;;16.60
68952;BMP180;56000;51.146;17.112;2023-07-31T01:56:25;99888.80;;;16.60
68952;BMP180;56000;51.146;17.112;2023-07-31T01:58:59;99885.00;;;16.60
68952;BMP180;56000;51.146;17.112;2023-07-31T02:01:32;99889.20;;;16.60
68952;BMP180;56000;51.146;17.112;2023-07-31T02:04:05;99886.80;;;16.60
68952;BMP180;56000;51.146;17.112;2023-07-31T02:06:38;99884.20;;;16.56
68952;BMP180;56000;51.146;17.112;2023-07-31T02:09:13;99880.20;;;16.50
68952;BMP180;56000;51.146;17.112;2023-07-31T02:11:46;99882.60;;;16.50
68952;BMP180;56000;51.146;17.112;2023-07-31T02:14:19;99888.20;;;16.50
68952;BMP180;56000;51.146;17.112;2023-07-31T02:16:52;99890.80;;;16.50
68952;BMP180;56000;51.146;17.112;2023-07-31T02:19:25;99892.00;;;16.50
68952;BMP180;56000;51.146;17.112;2023-07-31T02:21:58;99896.40;;;16.50
68952;BMP180;56000;51.146;17.112;2023-07-31T02:24:31;99895.40;;;16.50
68952;BMP180;56000;51.146;17.112;2023-07-31T02:27:05;99894.80;;;16.50
68952;BMP180;56000;51.146;17.112;2023-07-31T02:29:38;99891.60;;;16.50
68952;BMP180;56000;51.146;17.112;2023-07-31T02:32:11;99889.80;;;16.54
68952;BMP180;56000;51.146;17.112;2023-07-31T02:34:44;99891.20;;;16.54
68952;BMP180;56000;51.146;17.112;2023-07-31T02:37:19;99885.40;;;16.56
68952;BMP180;56000;51.146;17.112;2023-07-31T02:39:52;99888.00;;;16.52
68952;BMP180;56000;51.146;17.112;2023-07-31T02:42:25;99878.00;;;16.50
68952;BMP180;56000;51.146;17.112;2023-07-31T02:45:01;99877.80;;;16.50
68952;BMP180;56000;51.146;17.112;2023-07-31T02:47:34;99879.60;;;16.50
68952;BMP180;56000;51.146;17.112;2023-07-31T02:50:09;99877.80;;;16.50
68952;BMP180;56000;51.146;17.112;2023-07-31T02:52:42;99875.20;;;16.50
68952;BMP180;56000;51.146;17.112;2023-07-31T02:55:16;99879.00;;;16.50
68952;BMP180;56000;51.146;17.112;2023-07-31T02:57:49;99879.00;;;16.50
68952;BMP180;56000;51.146;17.112;2023-07-31T03:00:24;99877.00;;;16.48
68952;BMP180;56000;51.146;17.112;2023-07-31T03:02:57;99881.40;;;16.40
68952;BMP180;56000;51.146;17.112;2023-07-31T03:05:32;99882.00;;;16.40
68952;BMP180;56000;51.146;17.112;2023-07-31T03:08:05;99889.80;;;16.40
68952;BMP180;56000;51.146;17.112;2023-07-31T03:10:38;99884.40;;;16.38
68952;BMP180;56000;51.146;17.112;2023-07-31T03:13:11;99887.40;;;16.30
68952;BMP180;56000;51.146;17.112;2023-07-31T03:15:46;99894.00;;;16.30
68952;BMP180;56000;51.146;17.112;2023-07-31T03:18:19;99889.40;;;16.30
68952;BMP180;56000;51.146;17.112;2023-07-31T03:20:52;99891.20;;;16.30
68952;BMP180;56000;51.146;17.112;2023-07-31T03:23:25;99888.00;;;16.20
68952;BMP180;56000;51.146;17.112;2023-07-31T03:26:03;99887.80;;;16.20
68952;BMP180;56000;51.146;17.112;2023-07-31T03:28:36;99887.40;;;16.20
68952;BMP180;56000;51.146;17.112;2023-07-31T03:31:09;99893.20;;;16.20
68952;BMP180;56000;51.146;17.112;2023-07-31T03:33:43;99892.00;;;16.20
68952;BMP180;56000;51.146;17.112;2023-07-31T03:36:16;99895.40;;;16.20
68952;BMP180;56000;51.146;17.112;2023-07-31T03:38:50;99895.40;;;16.20
68952;BMP180;56000;51.146;17.112;2023-07-31T03:41:24;99897.20;;;16.20
68952;BMP180;56000;51.146;17.112;2023-07-31T03:43:57;99898.00;;;16.20
68952;BMP180;56000;51.146;17.112;2023-07-31T03:46:30;99898.40;;;16.20
68952;BMP180;56000;51.146;17.112;2023-07-31T03:49:03;99897.00;;;16.22
68952;BMP180;56000;51.146;17.112;2023-07-31T03:51:36;99893.40;;;16.30
68952;BMP180;56000;51.146;17.112;2023-07-31T03:54:09;99891.60;;;16.30
68952;BMP180;56000;51.146;17.112;2023-07-31T03:56:42;99891.60;;;16.30
68952;BMP180;56000;51.146;17.112;2023-07-31T03:59:15;99888.20;;;16.40
68952;BMP180;56000;51.146;17.112;2023-07-31T04:01:49;99882.60;;;16.40
68952;BMP180;56000;51.146;17.112;2023-07-31T04:04:22;99888.00;;;16.40
68952;BMP180;56000;51.146;17.112;2023-07-31T04:06:55;99885.20;;;16.40
68952;BMP180;56000;51.146;17.112;2023-07-31T04:09:28;99888.20;;;16.40
68952;BMP180;56000;51.146;17.112;2023-07-31T04:12:01;99886.40;;;16.50
68952;BMP180;56000;51.146;17.112;2023-07-31T04:14:34;99890.20;;;16.50
68952;BMP180;56000;51.146;17.112;2023-07-31T04:17:08;99885.20;;;16.50
68952;BMP180;56000;51.146;17.112;2023-07-31T04:19:43;99888.20;;;16.60
68952;BMP180;56000;51.146;17.112;2023-07-31T04:22:16;99888.20;;;16.60
68952;BMP180;56000;51.146;17.112;2023-07-31T04:24:49;99886.00;;;16.60
68952;BMP180;56000;51.146;17.112;2023-07-31T04:27:22;99882.60;;;16.70
68952;BMP180;56000;51.146;17.112;2023-07-31T04:29:55;99883.80;;;16.70
68952;BMP180;56000;51.146;17.112;2023-07-31T04:32:28;99880.80;;;16.80
68952;BMP180;56000;51.146;17.112;2023-07-31T04:35:01;99881.40;;;16.90
68952;BMP180;56000;51.146;17.112;2023-07-31T04:37:34;99883.40;;;16.96
68952;BMP180;56000;51.146;17.112;2023-07-31T04:40:09;99882.00;;;17.04
68952;BMP180;56000;51.146;17.112;2023-07-31T04:42:42;99885.00;;;17.20
68952;BMP180;56000;51.146;17.112;2023-07-31T04:45:16;99891.80;;;17.28
68952;BMP180;56000;51.146;17.112;2023-07-31T04:47:49;99889.80;;;17.38
68952;BMP180;56000;51.146;17.112;2023-07-31T04:50:22;99889.60;;;17.44
68952;BMP180;56000;51.146;17.112;2023-07-31T04:52:55;99890.60;;;17.58
68952;BMP180;56000;51.146;17.112;2023-07-31T04:55:28;99888.80;;;17.70
68952;BMP180;56000;51.146;17.112;2023-07-31T04:58:02;99888.20;;;17.80
68952;BMP180;56000;51.146;17.112;2023-07-31T05:00:35;99881.20;;;17.90
68952;BMP180;56000;51.146;17.112;2023-07-31T05:03:08;99879.20;;;18.00
68952;BMP180;56000;51.146;17.112;2023-07-31T05:05:43;99883.60;;;18.10
68952;BMP180;56000;51.146;17.112;2023-07-31T05:08:16;99881.80;;;18.20
68952;BMP180;56000;51.146;17.112;2023-07-31T05:10:49;99886.00;;;18.40
68952;BMP180;56000;51.146;17.112;2023-07-31T05:13:22;99888.20;;;18.50
68952;BMP180;56000;51.146;17.112;2023-07-31T05:15:56;99886.20;;;18.60
68952;BMP180;56000;51.146;17.112;2023-07-31T05:18:33;99890.80;;;18.80
68952;BMP180;56000;51.146;17.112;2023-07-31T05:21:06;99892.40;;;18.90
68952;BMP180;56000;51.146;17.112;2023-07-31T05:23:39;99891.20;;;19.08
68952;BMP180;56000;51.146;17.112;2023-07-31T05:26:12;99893.00;;;19.20
68952;BMP180;56000;51.146;17.112;2023-07-31T05:28:48;99888.00;;;19.30
68952;BMP180;56000;51.146;17.112;2023-07-31T05:31:21;99890.40;;;19.40
68952;BMP180;56000;51.146;17.112;2023-07-31T05:33:56;99893.60;;;19.50
68952;BMP180;56000;51.146;17.112;2023-07-31T05:36:29;99888.60;;;19.60
68952;BMP180;56000;51.146;17.112;2023-07-31T05:39:02;99891.60;;;19.70
68952;BMP180;56000;51.146;17.112;2023-07-31T05:41:39;99893.60;;;19.72
68952;BMP180;56000;51.146;17.112;2023-07-31T05:44:12;99895.60;;;19.80
68952;BMP180;56000;51.146;17.112;2023-07-31T05:46:45;99891.80;;;19.90
68952;BMP180;56000;51.146;17.112;2023-07-31T05:49:19;99892.60;;;19.90
68952;BMP180;56000;51.146;17.112;2023-07-31T05:51:51;99887.40;;;20.00
68952;BMP180;56000;51.146;17.112;2023-07-31T05:54:25;99885.40;;;20.10
68952;BMP180;56000;51.146;17.112;2023-07-31T05:56:58;99892.40;;;20.18
68952;BMP180;56000;51.146;17.112;2023-07-31T05:59:31;99886.40;;;20.30
68952;BMP180;56000;51.146;17.112;2023-07-31T06:02:05;99886.60;;;20.30
68952;BMP180;56000;51.146;17.112;2023-07-31T06:04:38;99886.60;;;20.40
68952;BMP180;56000;51.146;17.112;2023-07-31T06:07:12;99888.20;;;20.50
68952;BMP180;56000;51.146;17.112;2023-07-31T06:09:45;99890.40;;;20.60
68952;BMP180;56000;51.146;17.112;2023-07-31T06:12:17;99888.20;;;20.70
68952;BMP180;56000;51.146;17.112;2023-07-31T06:14:51;99888.60;;;20.80
68952;BMP180;56000;51.146;17.112;2023-07-31T06:17:24;99885.00;;;20.90
68952;BMP180;56000;51.146;17.112;2023-07-31T06:19:57;99888.60;;;20.90
68952;BMP180;56000;51.146;17.112;2023-07-31T06:22:31;99885.80;;;20.90
68952;BMP180;56000;51.146;17.112;2023-07-31T06:25:04;99881.80;;;20.90
68952;BMP180;56000;51.146;17.112;2023-07-31T06:27:37;99881.60;;;20.90
68952;BMP180;56000;51.146;17.112;2023-07-31T06:30:13;99881.40;;;20.90
68952;BMP180;56000;51.146;17.112;2023-07-31T06:32:46;99881.60;;;20.90
68952;BMP180;56000;51.146;17.112;2023-07-31T06:35:19;99882.80;;;20.90
68952;BMP180;56000;51.146;17.112;2023-07-31T06:37:52;99879.00;;;21.00
68952;BMP180;56000;51.146;17.112;2023-07-31T06:40:26;99879.80;;;21.00
68952;BMP180;56000;51.146;17.112;2023-07-31T06:42:59;99880.20;;;21.06
68952;BMP180;56000;51.146;17.112;2023-07-31T06:45:38;99881.60;;;21.12
68952;BMP180;56000;51.146;17.112;2023-07-31T06:48:11;99887.40;;;21.30
68952;BMP180;56000;51.146;17.112;2023-07-31T06:50:44;99885.60;;;21.50
68952;BMP180;56000;51.146;17.112;2023-07-31T06:53:17;99887.00;;;21.70
68952;BMP180;56000;51.146;17.112;2023-07-31T06:55:50;99886.60;;;21.80
68952;BMP180;56000;51.146;17.112;2023-07-31T06:58:24;99888.00;;;21.90
68952;BMP180;56000;51.146;17.112;2023-07-31T07:00:57;99890.60;;;21.80
68952;BMP180;56000;51.146;17.112;2023-07-31T07:03:30;99888.60;;;21.70
68952;BMP180;56000;51.146;17.112;2023-07-31T07:06:04;99884.00;;;21.60
68952;BMP180;56000;51.146;17.112;2023-07-31T07:08:37;99883.60;;;21.60
68952;BMP180;56000;51.146;17.112;2023-07-31T07:11:10;99881.60;;;21.60
68952;BMP180;56000;51.146;17.112;2023-07-31T07:13:43;99877.20;;;21.50
68952;BMP180;56000;51.146;17.112;2023-07-31T07:16:16;99877.20;;;21.54
68952;BMP180;56000;51.146;17.112;2023-07-31T07:18:50;99875.80;;;21.62
68952;BMP180;56000;51.146;17.112;2023-07-31T07:21:35;99876.00;;;21.70
68952;BMP180;56000;51.146;17.112;2023-07-31T07:24:08;99872.20;;;21.80
68952;BMP180;56000;51.146;17.112;2023-07-31T07:26:41;99871.80;;;21.90
68952;BMP180;56000;51.146;17.112;2023-07-31T07:29:14;99873.60;;;22.10
68952;BMP180;56000;51.146;17.112;2023-07-31T07:31:47;99869.60;;;22.20
68952;BMP180;56000;51.146;17.112;2023-07-31T07:34:20;99868.60;;;22.30
68952;BMP180;56000;51.146;17.112;2023-07-31T07:36:55;99870.60;;;22.46
68952;BMP180;56000;51.146;17.112;2023-07-31T07:39:28;99866.40;;;22.40
68952;BMP180;56000;51.146;17.112;2023-07-31T07:42:01;99860.40;;;22.30
68952;BMP180;56000;51.146;17.112;2023-07-31T07:44:35;99860.80;;;22.30
68952;BMP180;56000;51.146;17.112;2023-07-31T07:47:08;99859.60;;;22.30
68952;BMP180;56000;51.146;17.112;2023-07-31T07:49:41;99855.00;;;22.34
68952;BMP180;56000;51.146;17.112;2023-07-31T07:52:22;99860.20;;;22.40
68952;BMP180;56000;51.146;17.112;2023-07-31T07:54:55;99857.60;;;22.40
68952;BMP180;56000;51.146;17.112;2023-07-31T07:57:28;99861.20;;;22.60
68952;BMP180;56000;51.146;17.112;2023-07-31T08:00:02;99858.60;;;22.76
68952;BMP180;56000;51.146;17.112;2023-07-31T08:02:44;99856.80;;;23.00
68952;BMP180;56000;51.146;17.112;2023-07-31T08:05:17;99860.20;;;23.30
68952;BMP180;56000;51.146;17.112;2023-07-31T08:07:50;99855.60;;;23.50
68952;BMP180;56000;51.146;17.112;2023-07-31T08:10:23;99849.00;;;23.70
68952;BMP180;56000;51.146;17.112;2023-07-31T08:12:56;99844.80;;;23.86
68952;BMP180;56000;51.146;17.112;2023-07-31T08:15:30;99849.60;;;23.90
68952;BMP180;56000;51.146;17.112;2023-07-31T08:18:03;99842.40;;;23.70
68952;BMP180;56000;51.146;17.112;2023-07-31T08:20:36;99843.20;;;23.60
68952;BMP180;56000;51.146;17.112;2023-07-31T08:23:10;99845.00;;;23.50
68952;BMP180;56000;51.146;17.112;2023-07-31T08:25:44;99846.80;;;23.40
68952;BMP180;56000;51.146;17.112;2023-07-31T08:28:17;99854.40;;;23.50
68952;BMP180;56000;51.146;17.112;2023-07-31T08:30:51;99858.00;;;23.80
68952;BMP180;56000;51.146;17.112;2023-07-31T08:33:24;99860.20;;;24.12
68952;BMP180;56000;51.146;17.112;2023-07-31T08:35:57;99858.20;;;24.52
68952;BMP180;56000;51.146;17.112;2023-07-31T08:38:30;99853.20;;;24.80
68952;BMP180;56000;51.146;17.112;2023-07-31T08:41:05;99856.20;;;25.10
68952;BMP180;56000;51.146;17.112;2023-07-31T08:43:39;99858.80;;;25.40
68952;BMP180;56000;51.146;17.112;2023-07-31T08:46:13;99856.80;;;25.62
68952;BMP180;56000;51.146;17.112;2023-07-31T08:48:47;99857.40;;;25.70
68952;BMP180;56000;51.146;17.112;2023-07-31T08:51:21;99851.40;;;25.58
68952;BMP180;56000;51.146;17.112;2023-07-31T08:53:54;99852.20;;;25.30
68952;BMP180;56000;51.146;17.112;2023-07-31T08:56:29;99852.60;;;25.10
68952;BMP180;56000;51.146;17.112;2023-07-31T08:59:05;99850.60;;;24.90
68952;BMP180;56000;51.146;17.112;2023-07-31T09:01:46;99848.00;;;24.64
68952;BMP180;56000;51.146;17.112;2023-07-31T09:04:22;99848.00;;;24.42
68952;BMP180;56000;51.146;17.112;2023-07-31T09:06:59;99846.80;;;24.20
68952;BMP180;56000;51.146;17.112;2023-07-31T09:09:33;99853.40;;;23.90
68952;BMP180;56000;51.146;17.112;2023-07-31T09:12:08;99860.60;;;23.64
68952;BMP180;56000;51.146;17.112;2023-07-31T09:14:41;99861.20;;;23.28
68952;BMP180;56000;51.146;17.112;2023-07-31T09:17:15;99853.00;;;22.96
68952;BMP180;56000;51.146;17.112;2023-07-31T09:19:49;99853.80;;;22.80
68952;BMP180;56000;51.146;17.112;2023-07-31T09:22:33;99854.60;;;22.80
68952;BMP180;56000;51.146;17.112;2023-07-31T09:25:18;99842.00;;;22.90
68952;BMP180;56000;51.146;17.112;2023-07-31T09:27:56;99841.00;;;23.00
68952;BMP180;56000;51.146;17.112;2023-07-31T09:30:30;99862.00;;;23.00
68952;BMP180;56000;51.146;17.112;2023-07-31T09:33:09;99863.00;;;23.00
68952;BMP180;56000;51.146;17.112;2023-07-31T09:35:42;99870.60;;;22.90
68952;BMP180;56000;51.146;17.112;2023-07-31T09:38:17;99875.60;;;22.72
68952;BMP180;56000;51.146;17.112;2023-07-31T09:40:50;99874.80;;;22.60
68952;BMP180;56000;51.146;17.112;2023-07-31T09:43:24;99872.80;;;22.40
68952;BMP180;56000;51.146;17.112;2023-07-31T09:45:58;99873.40;;;22.30
68952;BMP180;56000;51.146;17.112;2023-07-31T09:48:31;99878.20;;;22.20
68952;BMP180;56000;51.146;17.112;2023-07-31T09:51:07;99881.80;;;22.10
68952;BMP180;56000;51.146;17.112;2023-07-31T09:53:41;99878.40;;;22.10
68952;BMP180;56000;51.146;17.112;2023-07-31T09:56:14;99878.60;;;22.06
68952;BMP180;56000;51.146;17.112;2023-07-31T09:58:47;99881.20;;;22.10
68952;BMP180;56000;51.146;17.112;2023-07-31T10:01:20;99877.60;;;22.14
68952;BMP180;56000;51.146;17.112;2023-07-31T10:03:54;99875.00;;;22.20
68952;BMP180;56000;51.146;17.112;2023-07-31T10:06:28;99861.60;;;22.40
68952;BMP180;56000;51.146;17.112;2023-07-31T10:09:01;99862.80;;;22.56
68952;BMP180;56000;51.146;17.112;2023-07-31T10:11:36;99863.60;;;22.70
68952;BMP180;56000;51.146;17.112;2023-07-31T10:14:11;99859.80;;;22.60
68952;BMP180;56000;51.146;17.112;2023-07-31T10:16:46;99853.80;;;22.60
68952;BMP180;56000;51.146;17.112;2023-07-31T10:19:21;99853.80;;;22.60
68952;BMP180;56000;51.146;17.112;2023-07-31T10:21:54;99854.00;;;22.60
68952;BMP180;56000;51.146;17.112;2023-07-31T10:24:29;99856.00;;;22.50
68952;BMP180;56000;51.146;17.112;2023-07-31T10:27:03;99852.60;;;22.40
68952;BMP180;56000;51.146;17.112;2023-07-31T10:29:36;99852.40;;;22.50
68952;BMP180;56000;51.146;17.112;2023-07-31T10:32:11;99853.80;;;22.70
68952;BMP180;56000;51.146;17.112;2023-07-31T10:34:45;99858.60;;;22.80
68952;BMP180;56000;51.146;17.112;2023-07-31T10:37:27;99860.40;;;22.80
68952;BMP180;56000;51.146;17.112;2023-07-31T10:40:02;99860.80;;;22.94
68952;BMP180;56000;51.146;17.112;2023-07-31T10:42:37;99855.60;;;23.32
68952;BMP180;56000;51.146;17.112;2023-07-31T10:45:12;99850.60;;;23.90
68952;BMP180;56000;51.146;17.112;2023-07-31T10:47:47;99851.80;;;24.00
68952;BMP180;56000;51.146;17.112;2023-07-31T10:50:23;99848.60;;;24.00
68952;BMP180;56000;51.146;17.112;2023-07-31T10:52:57;99848.20;;;23.96
68952;BMP180;56000;51.146;17.112;2023-07-31T10:55:33;99847.20;;;23.70
68952;BMP180;56000;51.146;17.112;2023-07-31T10:58:11;99840.40;;;23.42
68952;BMP180;56000;51.146;17.112;2023-07-31T11:00:45;99844.40;;;23.14
68952;BMP180;56000;51.146;17.112;2023-07-31T11:03:20;99841.80;;;22.90
68952;BMP180;56000;51.146;17.112;2023-07-31T11:06:01;99835.60;;;22.90
68952;BMP180;56000;51.146;17.112;2023-07-31T11:08:41;99833.40;;;22.90
68952;BMP180;56000;51.146;17.112;2023-07-31T11:11:15;99833.60;;;22.98
68952;BMP180;56000;51.146;17.112;2023-07-31T11:13:50;99826.20;;;23.10
68952;BMP180;56000;51.146;17.112;2023-07-31T11:16:25;99831.20;;;23.10
68952;BMP180;56000;51.146;17.112;2023-07-31T11:18:58;99830.60;;;23.20
68952;BMP180;56000;51.146;17.112;2023-07-31T11:21:31;99828.40;;;23.30
68952;BMP180;56000;51.146;17.112;2023-07-31T11:24:05;99823.20;;;23.40
68952;BMP180;56000;51.146;17.112;2023-07-31T11:26:38;99814.60;;;23.50
68952;BMP180;56000;51.146;17.112;2023-07-31T11:30:15;99810.00;;;24.42
68952;BMP180;56000;51.146;17.112;2023-07-31T11:32:52;99808.20;;;24.76
68952;BMP180;56000;51.146;17.112;2023-07-31T11:35:26;99801.40;;;25.64
68952;BMP180;56000;51.146;17.112;2023-07-31T11:38:00;99800.00;;;26.50
68952;BMP180;56000;51.146;17.112;2023-07-31T11:40:42;99791.20;;;27.20
68952;BMP180;56000;51.146;17.112;2023-07-31T11:43:17;99791.40;;;27.90
68952;BMP180;56000;51.146;17.112;2023-07-31T11:45:53;99779.40;;;27.62
68952;BMP180;56000;51.146;17.112;2023-07-31T11:48:30;99781.20;;;27.50
68952;BMP180;56000;51.146;17.112;2023-07-31T11:51:08;99767.40;;;27.28
68952;BMP180;56000;51.146;17.112;2023-07-31T11:53:45;99765.80;;;27.10
68952;BMP180;56000;51.146;17.112;2023-07-31T11:56:22;99778.00;;;26.96
68952;BMP180;56000;51.146;17.112;2023-07-31T11:58:59;99768.40;;;26.70
68952;BMP180;56000;51.146;17.112;2023-07-31T12:06:54;99755.80;;;27.42
68952;BMP180;56000;51.146;17.112;2023-07-31T12:09:29;99757.40;;;27.84
68952;BMP180;56000;51.146;17.112;2023-07-31T12:12:03;99753.40;;;28.84
68952;BMP180;56000;51.146;17.112;2023-07-31T12:14:43;99746.60;;;30.00
68952;BMP180;56000;51.146;17.112;2023-07-31T12:17:17;99755.00;;;30.80
68952;BMP180;56000;51.146;17.112;2023-07-31T12:19:53;99746.00;;;30.80
68952;BMP180;56000;51.146;17.112;2023-07-31T12:22:27;99740.20;;;30.32
68952;BMP180;56000;51.146;17.112;2023-07-31T12:25:03;99740.80;;;29.70
68952;BMP180;56000;51.146;17.112;2023-07-31T12:27:37;99737.40;;;29.06
68952;BMP180;56000;51.146;17.112;2023-07-31T12:30:29;99729.80;;;28.40
68952;BMP180;56000;51.146;17.112;2023-07-31T12:33:05;99727.60;;;27.62
68952;BMP180;56000;51.146;17.112;2023-07-31T12:35:40;99725.00;;;27.20
68952;BMP180;56000;51.146;17.112;2023-07-31T12:38:14;99720.80;;;26.90
68952;BMP180;56000;51.146;17.112;2023-07-31T12:40:47;99715.00;;;26.70
68952;BMP180;56000;51.146;17.112;2023-07-31T12:43:20;99713.00;;;27.14
68952;BMP180;56000;51.146;17.112;2023-07-31T12:45:55;99710.80;;;27.90
68952;BMP180;56000;51.146;17.112;2023-07-31T12:48:28;99703.60;;;28.60
68952;BMP180;56000;51.146;17.112;2023-07-31T12:51:02;99710.20;;;28.50
68952;BMP180;56000;51.146;17.112;2023-07-31T12:53:36;99707.00;;;28.30
68952;BMP180;56000;51.146;17.112;2023-07-31T12:56:09;99710.40;;;28.20
68952;BMP180;56000;51.146;17.112;2023-07-31T12:58:42;99704.80;;;28.10
68952;BMP180;56000;51.146;17.112;2023-07-31T13:01:15;99693.80;;;27.78
68952;BMP180;56000;51.146;17.112;2023-07-31T13:03:48;99689.60;;;27.12
68952;BMP180;56000;51.146;17.112;2023-07-31T13:06:22;99688.20;;;26.62
68952;BMP180;56000;51.146;17.112;2023-07-31T13:08:55;99690.80;;;26.22
68952;BMP180;56000;51.146;17.112;2023-07-31T13:11:28;99684.20;;;25.80
68952;BMP180;56000;51.146;17.112;2023-07-31T13:14:01;99680.00;;;25.60
68952;BMP180;56000;51.146;17.112;2023-07-31T13:16:34;99677.00;;;25.70
68952;BMP180;56000;51.146;17.112;2023-07-31T13:19:08;99680.20;;;25.90
68952;BMP180;56000;51.146;17.112;2023-07-31T13:21:41;99676.40;;;26.22
68952;BMP180;56000;51.146;17.112;2023-07-31T13:24:14;99676.60;;;26.84
68952;BMP180;56000;51.146;17.112;2023-07-31T13:26:47;99680.20;;;27.38
68952;BMP180;56000;51.146;17.112;2023-07-31T13:29:21;99674.20;;;27.80
68952;BMP180;56000;51.146;17.112;2023-07-31T13:31:55;99665.80;;;27.90
68952;BMP180;56000;51.146;17.112;2023-07-31T13:34:28;99655.20;;;28.48
68952;BMP180;56000;51.146;17.112;2023-07-31T13:37:01;99655.80;;;29.44
68952;BMP180;56000;51.146;17.112;2023-07-31T13:39:36;99658.20;;;30.06
68952;BMP180;56000;51.146;17.112;2023-07-31T13:42:10;99654.20;;;30.54
68952;BMP180;56000;51.146;17.112;2023-07-31T13:44:44;99656.40;;;30.88
68952;BMP180;56000;51.146;17.112;2023-07-31T13:47:17;99647.20;;;31.68
68952;BMP180;56000;51.146;17.112;2023-07-31T13:49:50;99652.40;;;32.38
68952;BMP180;56000;51.146;17.112;2023-07-31T13:52:23;99653.60;;;32.70
68952;BMP180;56000;51.146;17.112;2023-07-31T13:54:56;99655.80;;;32.34
68952;BMP180;56000;51.146;17.112;2023-07-31T13:57:29;99663.80;;;31.28
68952;BMP180;56000;51.146;17.112;2023-07-31T14:00:02;99662.60;;;30.06
68952;BMP180;56000;51.146;17.112;2023-07-31T14:02:37;99654.20;;;29.18
68952;BMP180;56000;51.146;17.112;2023-07-31T14:05:11;99648.00;;;29.14
68952;BMP180;56000;51.146;17.112;2023-07-31T14:07:44;99655.40;;;29.60
68952;BMP180;56000;51.146;17.112;2023-07-31T14:10:18;99651.00;;;29.40
68952;BMP180;56000;51.146;17.112;2023-07-31T14:12:51;99657.40;;;30.14
68952;BMP180;56000;51.146;17.112;2023-07-31T14:15:24;99656.60;;;30.40
68952;BMP180;56000;51.146;17.112;2023-07-31T14:17:57;99662.00;;;29.94
68952;BMP180;56000;51.146;17.112;2023-07-31T14:20:33;99659.60;;;29.26
68952;BMP180;56000;51.146;17.112;2023-07-31T14:23:06;99654.60;;;28.80
68952;BMP180;56000;51.146;17.112;2023-07-31T14:25:39;99655.60;;;28.30
68952;BMP180;56000;51.146;17.112;2023-07-31T14:28:13;99653.80;;;28.20
68952;BMP180;56000;51.146;17.112;2023-07-31T14:30:46;99647.80;;;28.30
68952;BMP180;56000;51.146;17.112;2023-07-31T14:33:19;99650.40;;;28.30
68952;BMP180;56000;51.146;17.112;2023-07-31T14:35:52;99654.20;;;28.20
68952;BMP180;56000;51.146;17.112;2023-07-31T14:38:25;99656.20;;;28.08
68952;BMP180;56000;51.146;17.112;2023-07-31T14:40:58;99651.60;;;28.08
68952;BMP180;56000;51.146;17.112;2023-07-31T14:43:31;99652.20;;;27.72